Topaz Lodge, Nevada
Current Conditions -  °F | °C
As of 1:35 PM on Thursday 23 Oct 2014 (Local Time) from KMEV Reporting Station
Clear Clear  
Wind Chill: 73°   Ceiling: Unl
Heat Index: 73°   Visibility: 10mi
Dew Point: 19°   Wind: 3mph
Humidity: 13%   Direction: 310°NW
Pressure: 30.06"   Gusts: NA
Location:  38.9417°N, 119.681°W
Report Text: KMEV 232035Z AUTO 31003KT 10SM CLR 23/M07 A3006 RMK AO2
Loading
Personal Weather Stations






























Interactive Weather Map
Tropical Storm Tracking
New forecast layout! Learn more

10-Day Weather Forecast

Advertisements
Track Severe Weather on mobile